Time;durP1;ratioP1;P1;durP2;ratioP2;P2;SDS_P1;SDS_P2;PMS_P1;PMS_P2;Temp;Humidity;BMP_temperature;BMP_pressure;BME280_temperature;BME280_humidity;BME280_pressure;Samples;Min_cycle;Max_cycle;Signal;HPM_P1;HPM_P2
2022/05/07 00:01:31;;;;;;;14.93;13.43;;;;;;;12.39;100.00;97146.44;5042780;28;20295;-52
2022/05/07 00:03:59;;;;;;;16.17;14.47;;;;;;;12.42;100.00;97141.69;5042803;28;20232;-51
2022/05/07 00:06:26;;;;;;;16.00;14.40;;;;;;;12.44;100.00;97147.66;5042802;28;20243;-50
2022/05/07 00:08:53;;;;;;;15.20;14.00;;;;;;;12.45;100.00;97151.16;5041987;28;20207;-51
2022/05/07 00:11:21;;;;;;;16.87;15.23;;;;;;;12.45;100.00;97152.00;5042883;28;20210;-52
2022/05/07 00:13:49;;;;;;;16.30;14.80;;;;;;;12.47;100.00;97144.72;5042010;28;20235;-51
2022/05/07 00:19:06;;;;;;;19.23;15.03;;;;;;;12.54;100.00;97152.13;4986575;28;20297;-51
2022/05/07 00:21:33;;;;;;;16.03;14.40;;;;;;;12.55;100.00;97140.50;5042599;28;20203;-52
2022/05/07 00:24:02;;;;;;;17.60;15.73;;;;;;;12.55;100.00;97140.50;5042029;28;20682;-51
2022/05/07 00:26:28;;;;;;;18.57;16.67;;;;;;;12.56;100.00;97143.03;5043125;28;20254;-50
2022/05/07 00:28:58;;;;;;;18.37;16.63;;;;;;;12.55;100.00;97138.72;5042204;28;20215;-51
2022/05/07 00:31:24;;;;;;;18.57;16.87;;;;;;;12.52;100.00;97136.34;5043414;28;20211;-51
2022/05/07 00:33:51;;;;;;;18.17;16.37;;;;;;;12.52;100.00;97128.38;5042379;28;20207;-51
2022/05/07 00:36:17;;;;;;;17.20;15.50;;;;;;;12.51;100.00;97131.16;5041668;28;20304;-51
2022/05/07 00:38:43;;;;;;;18.10;15.97;;;;;;;12.50;100.00;97127.69;5041352;28;20900;-50
2022/05/07 00:41:12;;;;;;;16.30;14.63;;;;;;;12.55;100.00;97127.25;5043043;28;20219;-50
2022/05/07 00:43:41;;;;;;;16.87;15.20;;;;;;;12.57;100.00;97118.19;5042257;28;20242;-51
2022/05/07 00:46:09;;;;;;;16.83;15.13;;;;;;;12.58;100.00;97124.31;5042145;28;20208;-51
2022/05/07 00:48:36;;;;;;;15.93;14.47;;;;;;;12.58;100.00;97119.84;5050021;28;20202;-52
2022/05/07 00:53:48;;;;;;;15.67;14.37;;;;;;;12.53;100.00;97122.09;5069169;28;20182;-50
2022/05/07 00:56:15;;;;;;;16.67;14.97;;;;;;;12.57;100.00;97117.34;5067844;28;20187;-50
2022/05/07 00:58:41;;;;;;;16.70;15.20;;;;;;;12.57;100.00;97118.19;5053165;28;20199;-51
2022/05/07 01:01:11;;;;;;;16.43;15.03;;;;;;;12.56;100.00;97120.97;5037783;28;20238;-50
2022/05/07 01:03:39;;;;;;;16.13;14.73;;;;;;;12.58;100.00;97113.69;5032115;28;20224;-50
2022/05/07 01:06:09;;;;;;;15.63;14.17;;;;;;;12.59;100.00;97110.06;5042161;28;20270;-51
2022/05/07 01:08:36;;;;;;;16.03;14.63;;;;;;;12.58;100.00;97109.22;5043636;28;20203;-50
2022/05/07 01:11:03;;;;;;;16.03;14.43;;;;;;;12.58;100.00;97116.34;5044131;28;20537;-51
2022/05/07 01:13:30;;;;;;;16.30;14.90;;;;;;;12.52;100.00;97107.16;5044247;28;20192;-51
2022/05/07 01:15:57;;;;;;;16.43;14.90;;;;;;;12.56;100.00;97105.91;5047836;28;20639;-50
2022/05/07 01:18:25;;;;;;;16.83;15.43;;;;;;;12.53;100.00;97108.84;5046264;28;20223;-51
2022/05/07 01:20:57;;;;;;;17.20;15.70;;;;;;;12.51;100.00;97096.69;5042328;28;20241;-51
2022/05/07 01:23:27;;;;;;;17.03;15.43;;;;;;;12.51;100.00;97102.81;5031728;28;20227;-51
2022/05/07 01:25:58;;;;;;;15.40;13.80;;;;;;;12.47;100.00;97101.44;5040908;28;20204;-50
2022/05/07 01:28:24;;;;;;;15.97;14.57;;;;;;;12.47;100.00;97104.94;5041661;28;20203;-50
2022/05/07 01:30:51;;;;;;;15.97;14.57;;;;;;;12.47;100.00;97098.78;5042917;28;20275;-50
2022/05/07 01:33:17;;;;;;;17.93;16.13;;;;;;;12.45;100.00;97103.41;5041981;28;20202;-52
2022/05/07 01:35:44;;;;;;;15.43;14.13;;;;;;;12.44;100.00;97104.38;5041838;28;20215;-51
2022/05/07 01:38:11;;;;;;;16.73;15.20;;;;;;;12.46;100.00;97089.19;5031097;28;20276;-51
2022/05/07 01:40:39;;;;;;;16.03;14.63;;;;;;;12.41;100.00;97092.25;5041499;28;21383;-52
2022/05/07 01:43:08;;;;;;;16.37;14.87;;;;;;;12.42;100.00;97093.94;5041480;28;20595;-51
2022/05/07 01:45:36;;;;;;;16.03;14.53;;;;;;;12.41;100.00;97094.06;5041522;28;20211;-50
2022/05/07 01:48:10;;;;;;;16.67;15.10;;;;;;;12.37;100.00;97093.50;5042321;28;20214;-51
2022/05/07 01:50:39;;;;;;;15.80;14.33;;;;;;;12.34;100.00;97093.81;5041233;28;20223;-50
2022/05/07 01:53:07;;;;;;;16.20;14.80;;;;;;;12.32;100.00;97098.44;5055731;28;20196;-50
2022/05/07 01:55:35;;;;;;;16.40;14.90;;;;;;;12.25;100.00;97102.63;5057106;28;20199;-51
2022/05/07 01:58:03;;;;;;;17.20;15.67;;;;;;;12.28;100.00;97096.19;5045254;28;20528;-52
2022/05/07 02:00:32;;;;;;;17.83;16.13;;;;;;;12.27;100.00;97090.03;5041297;28;20206;-49
2022/05/07 02:02:58;;;;;;;17.10;15.17;;;;;;;12.22;100.00;97092.28;5040969;28;20252;-51
2022/05/07 02:05:28;;;;;;;17.00;15.60;;;;;;;12.22;100.00;97094.13;5040845;28;20238;-50
2022/05/07 02:07:55;;;;;;;16.67;15.10;;;;;;;12.16;100.00;97094.66;5041788;28;20202;-50
2022/05/07 02:10:25;;;;;;;16.90;15.50;;;;;;;12.13;100.00;97089.66;5041181;28;20219;-52
2022/05/07 02:12:52;;;;;;;16.77;15.27;;;;;;;12.07;100.00;97088.41;5030312;28;20199;-51
2022/05/07 02:15:19;;;;;;;15.97;14.53;;;;;;;12.06;100.00;97085.88;5040742;28;20223;-51
2022/05/07 02:17:46;;;;;;;15.50;14.10;;;;;;;11.96;100.00;97081.44;5040813;28;20261;-51
2022/05/07 02:20:12;;;;;;;15.53;14.23;;;;;;;11.91;100.00;97082.81;5041350;28;20200;-50
2022/05/07 02:22:39;;;;;;;15.40;14.00;;;;;;;11.90;100.00;97087.28;5041214;28;20211;-51
2022/05/07 02:25:09;;;;;;;16.23;14.63;;;;;;;11.91;100.00;97081.03;5040715;28;20208;-50
2022/05/07 02:27:35;;;;;;;17.43;15.93;;;;;;;11.85;100.00;97081.59;5041002;28;20211;-50
2022/05/07 02:30:02;;;;;;;16.77;15.27;;;;;;;11.87;100.00;97084.09;5040820;28;20204;-51
2022/05/07 02:32:31;;;;;;;16.03;14.63;;;;;;;11.84;100.00;97081.72;5041473;28;20203;-51
2022/05/07 02:34:57;;;;;;;16.40;14.90;;;;;;;11.83;100.00;97080.88;5040895;28;20535;-50
2022/05/07 02:37:24;;;;;;;15.67;14.27;;;;;;;11.85;100.00;97084.25;5041471;28;20639;-50
2022/05/07 02:39:50;;;;;;;15.83;14.37;;;;;;;11.86;100.00;97091.22;5044953;28;20214;-50
2022/05/07 02:42:36;;;;;;;15.77;14.27;;;;;;;11.89;100.00;97084.78;5045073;28;20199;-51
2022/05/07 02:45:07;;;;;;;16.13;14.73;;;;;;;11.84;100.00;97077.25;5044782;28;20230;-52
2022/05/07 02:47:36;;;;;;;15.47;14.00;;;;;;;11.81;100.00;97082.84;5044881;28;20192;-50
2022/05/07 02:50:03;;;;;;;15.73;14.33;;;;;;;11.82;100.00;97081.88;5045123;28;20212;-51
2022/05/07 02:52:33;;;;;;;16.07;14.67;;;;;;;11.85;100.00;97081.59;5044101;28;20280;-51
2022/05/07 02:55:00;;;;;;;16.10;14.50;;;;;;;11.88;100.00;97089.25;5044489;28;20353;-51
2022/05/07 02:57:27;;;;;;;16.37;14.50;;;;;;;11.85;100.00;97078.94;5044883;28;20222;-51
2022/05/07 02:59:56;;;;;;;16.30;14.60;;;;;;;11.82;100.00;97078.38;5044651;28;20203;-52
2022/05/07 03:02:24;;;;;;;16.33;14.83;;;;;;;11.83;100.00;97080.06;5046764;28;20563;-51
2022/05/07 03:04:53;;;;;;;15.73;14.23;;;;;;;11.84;100.00;97071.97;5064718;28;21080;-50
2022/05/07 03:07:20;;;;;;;15.67;14.37;;;;;;;11.84;100.00;97073.75;5063468;28;20206;-51
2022/05/07 03:09:46;;;;;;;15.03;13.73;;;;;;;11.82;100.00;97073.94;5054595;28;20192;-50
2022/05/07 03:12:13;;;;;;;16.27;14.63;;;;;;;11.80;100.00;97077.66;5044834;28;20215;-51
2022/05/07 03:14:40;;;;;;;15.23;13.83;;;;;;;11.79;100.00;97073.38;5043557;28;20289;-51
2022/05/07 03:17:07;;;;;;;16.17;14.33;;;;;;;11.78;100.00;97066.38;5044144;28;20206;-50
2022/05/07 03:19:34;;;;;;;15.23;13.93;;;;;;;11.75;100.00;97070.16;5043419;28;20268;-51
2022/05/07 03:22:01;;;;;;;16.07;14.43;;;;;;;11.78;100.00;97058.44;5043669;28;20204;-50
2022/05/07 03:24:30;;;;;;;15.27;13.70;;;;;;;11.78;100.00;97064.56;5044217;28;20220;-49
2022/05/07 03:26:57;;;;;;;15.30;13.97;;;;;;;11.72;100.00;97059.84;5043975;28;20264;-49
2022/05/07 03:29:24;;;;;;;15.53;14.17;;;;;;;11.71;100.00;97066.13;5043370;28;20203;-51
2022/05/07 03:31:50;;;;;;;15.37;13.80;;;;;;;11.68;100.00;97062.88;5043144;28;20196;-51
2022/05/07 03:34:18;;;;;;;15.13;13.83;;;;;;;11.65;100.00;97071.94;5043659;28;20207;-50
2022/05/07 03:36:45;;;;;;;15.60;14.10;;;;;;;11.61;100.00;97065.25;5043506;28;20215;-50
2022/05/07 03:39:13;;;;;;;15.30;13.83;;;;;;;11.60;100.00;97063.56;5043996;28;20238;-51
2022/05/07 03:41:40;;;;;;;15.83;14.13;;;;;;;11.58;100.00;97060.22;5043712;28;20207;-50
2022/05/07 03:44:07;;;;;;;15.17;13.77;;;;;;;11.61;100.00;97059.94;5043597;28;20310;-51
2022/05/07 03:46:34;;;;;;;15.40;14.00;;;;;;;11.62;100.00;97061.59;5033749;28;20203;-50
2022/05/07 03:49:00;;;;;;;15.27;13.83;;;;;;;11.62;100.00;97066.09;5042698;28;20205;-51
2022/05/07 03:51:27;;;;;;;15.90;13.80;;;;;;;11.58;100.00;97054.94;5033057;28;20214;-52
2022/05/07 03:53:52;;;;;;;15.93;14.43;;;;;;;11.59;100.00;97061.88;5043267;28;20199;-50
2022/05/07 03:56:23;;;;;;;16.07;14.40;;;;;;;11.58;100.00;97064.69;5043406;28;20235;-51
2022/05/07 03:58:50;;;;;;;14.93;13.43;;;;;;;11.51;100.00;97061.75;5042902;28;20307;-51
2022/05/07 04:01:16;;;;;;;15.97;14.00;;;;;;;11.48;100.00;97059.38;5042762;28;20205;-51
2022/05/07 04:03:43;;;;;;;14.83;13.27;;;;;;;11.52;100.00;97068.72;5042747;28;20660;-50
2022/05/07 04:06:09;;;;;;;13.90;12.60;;;;;;;11.44;100.00;97064.09;5042136;28;20616;-50
2022/05/07 04:08:35;;;;;;;14.60;13.20;;;;;;;11.46;100.00;97069.28;5043227;28;20212;-50
2022/05/07 04:11:03;;;;;;;15.33;13.83;;;;;;;11.44;100.00;97073.88;5043071;28;20528;-51
2022/05/07 04:13:32;;;;;;;14.97;13.67;;;;;;;11.43;100.00;97073.03;5043666;28;20209;-51
2022/05/07 04:15:59;;;;;;;14.13;12.83;;;;;;;11.43;100.00;97073.03;5042474;28;20203;-51
2022/05/07 04:18:27;;;;;;;14.73;13.33;;;;;;;11.40;100.00;97078.63;5042969;28;20207;-51
2022/05/07 04:20:54;;;;;;;14.33;13.07;;;;;;;11.45;100.00;97071.06;5043159;28;20234;-50
2022/05/07 04:23:20;;;;;;;14.80;13.37;;;;;;;11.41;100.00;97074.13;5042426;28;20211;-51
2022/05/07 04:25:47;;;;;;;15.03;13.60;;;;;;;11.40;100.00;97068.03;5042881;28;20246;-51
2022/05/07 04:28:15;;;;;;;15.13;13.73;;;;;;;11.38;100.00;97074.41;5042591;28;20203;-50
2022/05/07 04:30:43;;;;;;;14.87;13.47;;;;;;;11.39;100.00;97076.09;5043006;28;20211;-51
2022/05/07 04:33:10;;;;;;;14.43;13.23;;;;;;;11.36;100.00;97076.38;5042905;28;20210;-51
2022/05/07 04:35:36;;;;;;;14.80;13.60;;;;;;;11.42;100.00;97076.66;5041843;28;20200;-50
2022/05/07 04:38:04;;;;;;;14.13;12.90;;;;;;;11.40;100.00;97089.22;5042424;28;20609;-50
2022/05/07 04:40:33;;;;;;;14.50;13.20;;;;;;;11.41;100.00;97090.03;5042852;28;20540;-50
2022/05/07 04:42:59;;;;;;;15.40;13.90;;;;;;;11.42;100.00;97081.09;5042365;28;20241;-50
2022/05/07 04:45:27;;;;;;;14.73;12.97;;;;;;;11.43;100.00;97088.09;5042636;28;20320;-50
2022/05/07 04:47:56;;;;;;;14.47;12.43;;;;;;;11.41;100.00;97090.03;5032602;28;20210;-51
2022/05/07 04:50:23;;;;;;;16.47;14.03;;;;;;;11.42;100.00;97087.25;5041894;28;20222;-50
2022/05/07 04:52:49;;;;;;;13.07;11.97;;;;;;;11.43;100.00;97099.53;5042035;28;20217;-50
2022/05/07 04:55:17;;;;;;;13.77;12.47;;;;;;;11.49;100.00;97092.81;5042336;28;21333;-51
2022/05/07 04:57:44;;;;;;;13.87;12.60;;;;;;;11.55;100.00;97091.47;5041805;28;21434;-51
2022/05/07 05:00:12;;;;;;;13.80;12.60;;;;;;;11.57;100.00;97095.63;5042426;28;20590;-50
2022/05/07 05:02:38;;;;;;;13.30;12.20;;;;;;;11.57;100.00;97095.63;5042853;28;20211;-51
2022/05/07 05:05:07;;;;;;;13.20;11.90;;;;;;;11.64;100.00;97091.47;5040863;28;20242;-50
2022/05/07 05:07:33;;;;;;;15.90;12.70;;;;;;;11.67;100.00;97096.47;5042564;28;20206;-51
2022/05/07 05:10:00;;;;;;;13.77;12.57;;;;;;;11.74;100.00;97102.94;5042071;28;20207;-51
2022/05/07 05:12:26;;;;;;;16.10;12.10;;;;;;;11.79;100.00;97100.72;5041395;28;20537;-51
2022/05/07 05:15:06;;;;;;;12.70;11.50;;;;;;;11.78;100.00;97098.19;5041863;28;20229;-50
2022/05/07 05:17:34;;;;;;;13.07;11.83;;;;;;;11.77;100.00;97107.94;5046149;28;20288;-51
2022/05/07 05:20:01;;;;;;;12.93;11.77;;;;;;;11.81;100.00;97109.34;5049833;28;20214;-51
2022/05/07 05:22:32;;;;;;;13.50;12.30;;;;;;;11.83;100.00;97102.06;5055429;28;20203;-50
2022/05/07 05:25:01;;;;;;;12.57;11.30;;;;;;;11.89;100.00;97103.34;5058746;28;20527;-51
2022/05/07 05:27:28;;;;;;;14.90;12.17;;;;;;;11.90;100.00;97108.50;5043244;28;20210;-51
2022/05/07 05:29:56;;;;;;;13.13;11.83;;;;;;;11.93;100.00;97118.84;5041913;28;20207;-50
2022/05/07 05:32:23;;;;;;;12.43;11.37;;;;;;;12.02;100.00;97116.31;5042458;28;20871;-51
2022/05/07 05:34:52;;;;;;;12.93;11.73;;;;;;;12.10;100.00;97119.09;5042216;28;20200;-51
2022/05/07 05:37:19;;;;;;;12.67;11.47;;;;;;;12.10;100.00;97119.09;5042122;28;20200;-51
2022/05/07 05:39:47;;;;;;;13.17;11.80;;;;;;;12.12;100.00;97117.13;5041303;28;20219;-49
2022/05/07 05:42:14;;;;;;;12.60;11.30;;;;;;;12.22;100.00;97117.97;5041539;28;20211;-50
2022/05/07 05:44:42;;;;;;;12.43;11.07;;;;;;;12.25;100.00;97123.00;5040971;28;20675;-49
2022/05/07 05:47:09;;;;;;;12.37;11.07;;;;;;;12.32;100.00;97132.06;5046493;28;20209;-51
2022/05/07 05:49:36;;;;;;;12.30;11.17;;;;;;;12.33;100.00;97131.91;5047933;28;20223;-52
2022/05/07 05:52:03;;;;;;;12.37;11.20;;;;;;;12.42;100.00;97127.56;5047974;28;20278;-51
2022/05/07 05:54:30;;;;;;;13.67;11.20;;;;;;;12.54;100.00;97129.06;5040822;28;20195;-51
2022/05/07 05:56:59;;;;;;;12.17;10.60;;;;;;;12.62;100.00;97136.31;5041433;28;20292;-50
2022/05/07 05:59:26;;;;;;;12.10;10.90;;;;;;;12.63;99.84;97122.91;5040845;28;20199;-51
2022/05/07 06:01:54;;;;;;;11.23;10.20;;;;;;;12.70;100.00;97126.66;5041409;28;20200;-50
2022/05/07 06:04:22;;;;;;;15.57;10.20;;;;;;;12.74;97.78;97124.56;5041034;28;20232;-52
2022/05/07 06:06:49;;;;;;;13.67;10.67;;;;;;;12.80;95.63;97130.13;5040135;28;20242;-50
2022/05/07 06:09:15;;;;;;;10.33;9.23;;;;;;;12.86;94.73;97123.38;5041481;28;20196;-51
2022/05/07 06:11:44;;;;;;;11.23;10.03;;;;;;;12.92;96.83;97131.63;5041244;28;20211;-52
2022/05/07 06:14:13;;;;;;;11.00;9.70;;;;;;;13.02;98.28;97128.09;5045417;28;20624;-50
2022/05/07 06:16:41;;;;;;;11.33;9.53;;;;;;;13.06;96.91;97121.50;5045107;28;20647;-50
2022/05/07 06:19:08;;;;;;;10.93;9.73;;;;;;;13.10;93.50;97112.28;5045833;28;20222;-50
2022/05/07 06:21:35;;;;;;;10.23;9.17;;;;;;;13.22;93.30;97116.41;5045421;28;20211;-51
2022/05/07 06:29:31;;;;;;;10.43;9.37;;;;;;;13.53;90.29;97117.78;5045370;28;20601;-50
2022/05/07 06:31:58;;;;;;;11.27;9.40;;;;;;;13.62;89.69;97119.53;5044815;28;20226;-51
2022/05/07 06:34:24;;;;;;;15.93;9.20;;;;;;;13.62;88.67;97122.19;5045360;28;20530;-50
2022/05/07 06:36:52;;;;;;;9.90;8.90;;;;;;;13.66;87.20;97123.56;5044455;28;20200;-51
2022/05/07 06:39:20;;;;;;;10.23;8.77;;;;;;;13.68;86.80;97128.72;5045485;28;20235;-50
2022/05/07 06:41:50;;;;;;;14.47;9.13;;;;;;;13.69;86.83;97130.41;5045233;28;20257;-51
2022/05/07 06:44:18;;;;;;;14.60;8.60;;;;;;;13.64;86.91;97130.84;5044961;28;20242;-51
2022/05/07 06:46:46;;;;;;;11.40;8.07;;;;;;;13.62;87.83;97137.31;5045227;28;20200;-50
2022/05/07 06:49:14;;;;;;;12.00;8.27;;;;;;;13.65;89.56;97137.00;5035640;28;20203;-50
2022/05/07 06:51:41;;;;;;;11.83;8.10;;;;;;;13.63;88.43;97131.84;5047819;28;20206;-51
2022/05/07 06:54:08;;;;;;;10.07;8.90;;;;;;;13.65;89.81;97129.03;5048675;28;20215;-51
2022/05/07 06:56:35;;;;;;;11.20;8.17;;;;;;;13.55;87.57;97126.44;5049059;28;20294;-50
2022/05/07 06:59:03;;;;;;;10.13;7.93;;;;;;;13.53;86.01;97130.25;5048076;28;20214;-50
2022/05/07 07:01:31;;;;;;;10.80;8.20;;;;;;;13.59;86.01;97130.47;5050927;28;20199;-51
2022/05/07 07:03:59;;;;;;;10.00;8.27;;;;;;;13.64;86.51;97133.50;5053020;28;20202;-50
2022/05/07 07:06:28;;;;;;;9.80;8.80;;;;;;;13.71;86.67;97131.91;5051433;28;20262;-51
2022/05/07 07:08:57;;;;;;;9.20;7.67;;;;;;;13.65;84.43;97135.19;5054076;28;20207;-50
2022/05/07 07:11:25;;;;;;;10.77;8.17;;;;;;;13.66;85.20;97131.53;5050916;28;20235;-50
2022/05/07 07:13:53;;;;;;;8.60;7.70;;;;;;;13.59;85.61;97133.13;5050659;28;20208;-50
2022/05/07 07:16:19;;;;;;;9.33;8.43;;;;;;;13.60;86.45;97139.28;5050704;28;20206;-51
2022/05/07 07:18:46;;;;;;;11.77;8.57;;;;;;;13.62;86.10;97137.31;5050945;28;20208;-51
2022/05/07 07:21:14;;;;;;;9.60;8.27;;;;;;;13.62;87.41;97131.97;5050075;28;20200;-49
2022/05/07 07:23:42;;;;;;;8.47;7.53;;;;;;;13.61;87.11;97136.47;5047331;28;20294;-53
2022/05/07 07:26:09;;;;;;;8.60;7.80;;;;;;;13.61;86.50;97141.78;5043921;28;20243;-51
2022/05/07 07:28:36;;;;;;;8.33;7.53;;;;;;;13.55;83.83;97142.38;5043613;28;20631;-51
2022/05/07 07:31:03;;;;;;;9.80;7.90;;;;;;;13.51;87.45;97135.69;5043515;28;20207;-50
2022/05/07 07:33:29;;;;;;;11.37;7.80;;;;;;;13.52;87.93;97137.38;5067142;28;20196;-49
2022/05/07 07:35:56;;;;;;;8.97;7.53;;;;;;;13.50;88.59;97143.81;5065263;28;20207;-49
2022/05/07 07:38:26;;;;;;;10.03;8.17;;;;;;;13.44;86.62;97139.94;5058422;28;20277;-50
2022/05/07 07:40:53;;;;;;;11.77;8.00;;;;;;;13.44;86.74;97142.59;5044511;28;20230;-50
2022/05/07 07:43:21;;;;;;;8.73;7.57;;;;;;;13.35;85.51;97143.50;5043160;28;20218;-51
2022/05/07 07:48:31;;;;;;;8.83;6.97;;;;;;;13.34;90.25;97142.66;5043200;28;20207;-50
2022/05/07 07:50:58;;;;;;;7.87;7.17;;;;;;;13.31;90.54;97137.63;5042806;28;20219;-51
2022/05/07 07:53:26;;;;;;;8.70;7.90;;;;;;;13.31;89.82;97142.94;5042822;28;20541;-50
2022/05/07 07:55:53;;;;;;;8.37;7.57;;;;;;;13.46;89.41;97148.59;5043138;28;20192;-50
2022/05/07 07:58:19;;;;;;;8.73;7.93;;;;;;;13.52;88.25;97145.34;5043189;28;20721;-49
2022/05/07 08:00:46;;;;;;;9.70;8.53;;;;;;;13.56;86.91;97154.69;5043484;28;20208;-50
2022/05/07 08:03:16;;;;;;;9.40;8.50;;;;;;;13.60;87.26;97156.06;5043274;28;20322;-50
2022/05/07 08:05:45;;;;;;;10.90;8.37;;;;;;;13.62;88.33;97154.09;5043902;28;20239;-52
2022/05/07 08:13:44;;;;;;;9.27;8.37;;;;;;;13.53;87.87;97165.63;5041340;28;20241;-49
2022/05/07 08:16:11;;;;;;;9.17;8.27;;;;;;;13.51;88.09;97153.44;5042273;28;20199;-50
2022/05/07 08:18:42;;;;;;;9.67;8.77;;;;;;;13.38;88.32;97156.47;5042892;28;20212;-50
2022/05/07 08:21:10;;;;;;;9.60;8.67;;;;;;;13.30;89.26;97153.69;5043175;28;20286;-51
2022/05/07 08:23:38;;;;;;;9.47;8.67;;;;;;;13.18;93.26;97162.88;5042434;28;20208;-51
2022/05/07 08:26:06;;;;;;;9.87;8.40;;;;;;;13.19;92.57;97161.84;5042424;28;20691;-51
2022/05/07 08:28:33;;;;;;;10.13;9.23;;;;;;;13.18;91.49;97154.91;5043031;28;20215;-50
2022/05/07 08:31:00;;;;;;;9.60;8.73;;;;;;;13.14;95.50;97158.81;5042343;28;20211;-50
2022/05/07 08:33:30;;;;;;;9.53;8.43;;;;;;;13.11;93.86;97159.94;5042586;28;20199;-51
2022/05/07 08:35:56;;;;;;;8.93;8.03;;;;;;;13.12;94.94;97158.97;5041647;28;20651;-51
2022/05/07 08:38:23;;;;;;;10.10;8.57;;;;;;;13.12;94.88;97164.25;5042559;28;20206;-51
2022/05/07 08:40:51;;;;;;;10.40;8.53;;;;;;;13.11;94.58;97169.75;5040910;28;20555;-51
2022/05/07 08:43:20;;;;;;;8.90;8.20;;;;;;;13.05;93.90;97167.63;5042036;28;20235;-51
2022/05/07 08:45:46;;;;;;;9.80;8.33;;;;;;;13.04;93.35;97158.81;5042065;28;20280;-52
2022/05/07 08:48:14;;;;;;;8.40;7.60;;;;;;;13.08;91.84;97167.31;5042167;28;20554;-50
2022/05/07 08:50:45;;;;;;;8.07;7.37;;;;;;;13.03;92.63;97156.31;5032365;28;20211;-51
2022/05/07 08:53:11;;;;;;;9.70;7.90;;;;;;;13.02;92.75;97163.44;5042529;28;20203;-50
2022/05/07 08:55:38;;;;;;;8.83;8.03;;;;;;;13.03;94.03;97161.63;5042385;28;20219;-50
2022/05/07 08:58:05;;;;;;;8.20;7.40;;;;;;;13.03;93.60;97165.13;5042733;28;20215;-50
2022/05/07 09:00:38;;;;;;;9.53;7.87;;;;;;;13.09;91.39;97161.91;5041972;28;20219;-51
2022/05/07 09:03:04;;;;;;;10.50;9.37;;;;;;;13.10;91.76;97154.78;5041027;28;20207;-51
2022/05/07 09:05:33;;;;;;;13.13;9.03;;;;;;;13.18;90.31;97160.22;5042054;28;20550;-50
2022/05/07 09:08:00;;;;;;;8.93;8.10;;;;;;;13.23;89.24;97165.91;5041524;28;20587;-51
2022/05/07 09:10:27;;;;;;;8.97;7.80;;;;;;;13.24;91.36;97162.28;5042275;28;20207;-51
2022/05/07 09:12:54;;;;;;;8.43;7.73;;;;;;;13.36;89.69;97153.09;5041473;28;20203;-51
2022/05/07 09:15:21;;;;;;;8.53;7.73;;;;;;;13.45;88.69;97160.22;5041656;28;20223;-49
2022/05/07 09:17:51;;;;;;;8.53;7.50;;;;;;;13.54;87.77;97161.97;5042191;28;20211;-50
2022/05/07 09:20:19;;;;;;;8.10;7.40;;;;;;;13.61;87.12;97154.22;5030500;28;20219;-50
2022/05/07 09:22:50;;;;;;;9.07;8.17;;;;;;;13.68;88.27;97156.13;5042508;28;20639;-51
2022/05/07 09:25:20;;;;;;;8.70;7.80;;;;;;;13.74;89.69;97155.56;5041429;28;20226;-51
2022/05/07 09:27:47;;;;;;;9.00;8.20;;;;;;;13.70;84.28;97161.31;5041086;28;20229;-50
2022/05/07 09:30:14;;;;;;;8.20;7.50;;;;;;;13.88;85.05;97148.88;5042545;28;20203;-51
2022/05/07 09:32:41;;;;;;;9.57;8.20;;;;;;;13.98;83.81;97148.81;5040729;28;20639;-50
2022/05/07 09:38:01;;;;;;;9.30;8.40;;;;;;;14.18;85.58;97147.66;5042625;28;20222;-51
2022/05/07 09:40:29;;;;;;;10.47;9.13;;;;;;;14.15;81.50;97145.31;5040148;28;20790;-50
2022/05/07 09:42:57;;;;;;;9.87;9.03;;;;;;;14.34;82.10;97146.03;5042612;28;20667;-50
2022/05/07 09:45:25;;;;;;;10.17;9.27;;;;;;;14.45;81.38;97139.63;5052277;28;20219;-52
2022/05/07 09:47:55;;;;;;;10.17;9.27;;;;;;;14.55;81.08;97139.50;5061924;28;20203;-51
2022/05/07 09:58:36;;;;;;;11.20;10.30;;;;;;;15.16;79.61;97136.72;5060080;28;20214;-51
2022/05/07 10:01:17;;;;;;;11.27;10.07;;;;;;;15.43;78.25;97133.84;5046270;28;20214;-51
2022/05/07 10:03:48;;;;;;;12.60;10.98;;;;;;;15.69;75.27;97133.78;5041992;28;20203;-50
2022/05/07 10:06:25;;;;;;;11.57;10.47;;;;;;;15.99;75.92;97119.00;5031552;28;20223;-50
2022/05/07 10:09:03;;;;;;;10.00;9.20;;;;;;;16.32;73.05;97126.03;5041658;28;20699;-51
2022/05/07 10:11:31;;;;;;;12.68;10.02;;;;;;;16.57;74.52;97127.72;5041482;28;20206;-51
2022/05/07 10:13:58;;;;;;;11.52;10.50;;;;;;;16.59;71.23;97123.03;5042069;28;20236;-50
2022/05/07 10:16:29;;;;;;;11.13;10.15;;;;;;;16.83;74.14;97127.50;5038236;28;20529;-49
2022/05/07 10:18:56;;;;;;;10.25;9.35;;;;;;;17.20;72.08;97118.88;5041139;28;20208;-49
2022/05/07 10:21:24;;;;;;;12.80;11.50;;;;;;;17.28;70.70;97124.22;5040706;28;20207;-50
2022/05/07 10:23:53;;;;;;;12.65;11.45;;;;;;;17.58;67.80;97119.91;5040520;28;20652;-51
2022/05/07 10:26:21;;;;;;;12.98;11.73;;;;;;;17.67;69.29;97114.38;5041783;28;20236;-49
2022/05/07 10:28:48;;;;;;;14.57;13.18;;;;;;;17.62;68.89;97116.72;5041018;28;20210;-50
2022/05/07 10:31:20;;;;;;;12.60;11.50;;;;;;;17.69;69.65;97112.34;5042026;28;20206;-49
2022/05/07 10:33:47;;;;;;;11.80;10.75;;;;;;;17.70;69.01;97108.66;5041807;28;20651;-49
2022/05/07 10:36:15;;;;;;;12.77;11.68;;;;;;;17.71;68.39;97115.66;5046231;28;20203;-51
2022/05/07 10:38:45;;;;;;;13.32;12.13;;;;;;;17.65;67.88;97097.66;5046295;28;20810;-51
2022/05/07 10:41:24;;;;;;;12.88;11.70;;;;;;;17.61;67.77;97103.53;5042269;28;20204;-49
2022/05/07 10:44:02;;;;;;;13.82;12.65;;;;;;;17.80;67.60;97101.25;5040122;28;20546;-51
2022/05/07 10:46:39;;;;;;;13.93;12.63;;;;;;;18.11;68.21;97101.19;5040735;28;20215;-51
2022/05/07 10:49:06;;;;;;;13.68;12.57;;;;;;;18.07;66.61;97097.19;5031413;28;20269;-49
2022/05/07 10:51:34;;;;;;;13.73;12.50;;;;;;;18.23;67.18;97093.59;5039876;28;20208;-51
2022/05/07 10:54:03;;;;;;;14.52;13.13;;;;;;;17.85;65.88;97088.16;5040290;28;20212;-50
2022/05/07 10:56:32;;;;;;;14.13;12.82;;;;;;;17.83;67.63;97087.50;5041593;28;20227;-50
2022/05/07 10:58:59;;;;;;;14.00;12.57;;;;;;;17.88;67.20;97087.81;5042760;28;20199;-48
2022/05/07 11:01:27;;;;;;;12.93;11.82;;;;;;;18.04;68.37;97086.03;5044749;28;20326;-48
2022/05/07 11:04:03;;;;;;;14.13;13.00;;;;;;;17.96;68.86;97081.56;5044900;28;21449;-49
2022/05/07 11:06:31;;;;;;;13.57;12.48;;;;;;;18.07;71.08;97078.47;5043737;28;20687;-49
2022/05/07 11:08:59;;;;;;;14.85;13.50;;;;;;;18.08;69.87;97079.31;5044255;28;20199;-48
2022/05/07 11:11:27;;;;;;;13.38;12.27;;;;;;;18.18;68.79;97069.19;5043732;28;20678;-50
2022/05/07 11:13:57;;;;;;;13.55;12.35;;;;;;;18.20;68.50;97064.50;5043920;28;20208;-49
2022/05/07 11:16:24;;;;;;;12.43;11.43;;;;;;;18.71;67.80;97071.72;5042741;28;20215;-49
2022/05/07 11:18:53;;;;;;;13.15;11.88;;;;;;;19.03;64.89;97058.97;5045014;28;20196;-49
2022/05/07 11:21:20;;;;;;;12.23;11.23;;;;;;;19.23;63.97;97068.16;5044872;28;20196;-49
2022/05/07 11:23:53;;;;;;;12.98;11.95;;;;;;;19.09;64.61;97052.91;5044050;28;20203;-50
2022/05/07 11:26:20;;;;;;;12.85;11.57;;;;;;;19.07;64.63;97049.56;5043557;28;20207;-50
2022/05/07 11:28:49;;;;;;;12.18;11.07;;;;;;;19.17;64.95;97052.78;5042283;28;20204;-49
2022/05/07 11:31:26;;;;;;;12.05;11.05;;;;;;;18.95;64.30;97046.53;5043322;28;20291;-49
2022/05/07 11:34:03;;;;;;;12.93;11.50;;;;;;;18.99;63.85;97049.69;5043822;28;20206;-49
2022/05/07 11:36:32;;;;;;;11.63;10.63;;;;;;;19.13;64.76;97055.00;5044036;28;20480;-50
2022/05/07 11:38:59;;;;;;;12.18;11.18;;;;;;;19.06;61.64;97054.09;5043508;28;20241;-49
2022/05/07 11:41:26;;;;;;;11.48;10.40;;;;;;;18.97;64.67;97051.69;5043642;28;20238;-50
2022/05/07 11:46:49;;;;;;;12.23;11.00;;;;;;;18.33;64.08;97048.66;5043024;28;20552;-49
2022/05/07 11:49:16;;;;;;;12.07;11.02;;;;;;;18.33;64.42;97045.97;5043440;28;20635;-51
2022/05/07 11:51:43;;;;;;;12.63;11.52;;;;;;;18.35;64.39;97038.59;5043582;28;20602;-51
2022/05/07 11:54:10;;;;;;;11.70;10.60;;;;;;;18.42;64.17;97044.06;5033340;28;20208;-50